sensor_id;sensor_type;location;lat;lon;timestamp;pressure;altitude;pressure_sealevel;temperature;humidity
79236;BME280;69062;47.460;18.812;2023-06-14T00:00:32;99914.19;;;22.20;55.89
79236;BME280;69062;47.460;18.812;2023-06-14T00:01:36;99909.00;;;22.18;55.76
79236;BME280;69062;47.460;18.812;2023-06-14T00:02:40;99919.75;;;22.18;55.96
79236;BME280;69062;47.460;18.812;2023-06-14T00:03:44;99910.00;;;22.17;56.00
79236;BME280;69062;47.460;18.812;2023-06-14T00:04:47;99916.22;;;22.18;56.32
79236;BME280;69062;47.460;18.812;2023-06-14T00:05:50;99910.00;;;22.17;56.18
79236;BME280;69062;47.460;18.812;2023-06-14T00:06:53;99912.69;;;22.17;55.96
79236;BME280;69062;47.460;18.812;2023-06-14T00:07:59;99912.81;;;22.16;56.03
79236;BME280;69062;47.460;18.812;2023-06-14T00:09:02;99911.97;;;22.15;55.90
79236;BME280;69062;47.460;18.812;2023-06-14T00:10:06;99912.81;;;22.16;56.54
79236;BME280;69062;47.460;18.812;2023-06-14T00:11:09;99910.28;;;22.14;56.02
79236;BME280;69062;47.460;18.812;2023-06-14T00:12:11;99912.97;;;22.14;56.14
79236;BME280;69062;47.460;18.812;2023-06-14T00:13:14;99909.44;;;22.14;56.52
79236;BME280;69062;47.460;18.812;2023-06-14T00:14:17;99912.28;;;22.12;56.26
79236;BME280;69062;47.460;18.812;2023-06-14T00:15:20;99908.59;;;22.13;56.14
79236;BME280;69062;47.460;18.812;2023-06-14T00:16:23;99918.69;;;22.11;56.80
79236;BME280;69062;47.460;18.812;2023-06-14T00:17:27;99917.69;;;22.12;56.43
79236;BME280;69062;47.460;18.812;2023-06-14T00:18:34;99914.97;;;22.12;56.61
79236;BME280;69062;47.460;18.812;2023-06-14T00:19:36;99917.50;;;22.14;56.66
79236;BME280;69062;47.460;18.812;2023-06-14T00:20:39;99922.06;;;22.13;56.75
79236;BME280;69062;47.460;18.812;2023-06-14T00:21:45;99922.22;;;22.12;56.61
79236;BME280;69062;47.460;18.812;2023-06-14T00:22:48;99921.38;;;22.11;56.91
79236;BME280;69062;47.460;18.812;2023-06-14T00:23:51;99916.84;;;22.12;56.32
79236;BME280;69062;47.460;18.812;2023-06-14T00:24:54;99915.16;;;22.11;56.75
79236;BME280;69062;47.460;18.812;2023-06-14T00:25:58;99929.44;;;22.11;56.98
79236;BME280;69062;47.460;18.812;2023-06-14T00:27:01;99920.69;;;22.09;56.44
79236;BME280;69062;47.460;18.812;2023-06-14T00:28:04;99917.00;;;22.10;57.07
79236;BME280;69062;47.460;18.812;2023-06-14T00:29:07;99925.06;;;22.10;56.84
79236;BME280;69062;47.460;18.812;2023-06-14T00:30:11;99923.38;;;22.09;56.61
79236;BME280;69062;47.460;18.812;2023-06-14T00:31:14;99926.91;;;22.10;56.95
79236;BME280;69062;47.460;18.812;2023-06-14T00:32:18;99921.66;;;22.08;56.88
79236;BME280;69062;47.460;18.812;2023-06-14T00:33:21;99926.16;;;22.08;56.99
79236;BME280;69062;47.460;18.812;2023-06-14T00:34:24;99929.72;;;22.08;56.68
79236;BME280;69062;47.460;18.812;2023-06-14T00:35:26;99922.63;;;22.07;56.92
79236;BME280;69062;47.460;18.812;2023-06-14T00:36:29;99928.00;;;22.07;56.63
79236;BME280;69062;47.460;18.812;2023-06-14T00:37:32;99927.16;;;22.07;56.44
79236;BME280;69062;47.460;18.812;2023-06-14T00:38:35;99935.41;;;22.05;56.81
79236;BME280;69062;47.460;18.812;2023-06-14T00:39:37;99934.56;;;22.05;57.02
79236;BME280;69062;47.460;18.812;2023-06-14T00:40:40;99923.97;;;22.03;56.75
79236;BME280;69062;47.460;18.812;2023-06-14T00:41:43;99930.19;;;22.03;57.12
79236;BME280;69062;47.460;18.812;2023-06-14T00:42:46;99928.50;;;22.02;56.64
79236;BME280;69062;47.460;18.812;2023-06-14T00:43:48;99927.66;;;22.02;56.73
79236;BME280;69062;47.460;18.812;2023-06-14T00:44:51;99928.50;;;22.02;56.95
79236;BME280;69062;47.460;18.812;2023-06-14T00:45:54;99925.09;;;22.00;56.72
79236;BME280;69062;47.460;18.812;2023-06-14T00:46:57;99937.53;;;22.01;56.67
79236;BME280;69062;47.460;18.812;2023-06-14T00:48:00;99931.31;;;22.01;56.84
79236;BME280;69062;47.460;18.812;2023-06-14T00:49:04;99934.84;;;22.01;57.30
79236;BME280;69062;47.460;18.812;2023-06-14T00:50:07;99941.25;;;22.00;56.74
79236;BME280;69062;47.460;18.812;2023-06-14T00:51:11;99933.31;;;21.99;57.36
79236;BME280;69062;47.460;18.812;2023-06-14T00:52:15;99936.03;;;21.99;57.42
79236;BME280;69062;47.460;18.812;2023-06-14T00:53:19;99935.19;;;21.98;57.50
79236;BME280;69062;47.460;18.812;2023-06-14T00:54:23;99942.25;;;21.99;57.02
79236;BME280;69062;47.460;18.812;2023-06-14T00:55:25;99933.50;;;21.97;57.38
79236;BME280;69062;47.460;18.812;2023-06-14T00:56:30;99944.25;;;21.97;57.30
79236;BME280;69062;47.460;18.812;2023-06-14T00:57:33;99941.56;;;21.97;57.45
79236;BME280;69062;47.460;18.812;2023-06-14T00:58:41;99937.03;;;21.98;57.02
79236;BME280;69062;47.460;18.812;2023-06-14T00:59:46;99935.19;;;21.98;57.44
79236;BME280;69062;47.460;18.812;2023-06-14T01:00:49;99934.16;;;21.99;57.65
79236;BME280;69062;47.460;18.812;2023-06-14T01:01:53;99931.47;;;21.99;57.48
79236;BME280;69062;47.460;18.812;2023-06-14T01:02:56;99929.63;;;22.00;57.19
79236;BME280;69062;47.460;18.812;2023-06-14T01:04:00;99934.16;;;21.99;56.97
79236;BME280;69062;47.460;18.812;2023-06-14T01:05:05;99935.19;;;21.98;57.24
79236;BME280;69062;47.460;18.812;2023-06-14T01:07:02;99927.94;;;21.99;57.56
79236;BME280;69062;47.460;18.812;2023-06-14T01:08:25;99936.03;;;21.99;57.10
79236;BME280;69062;47.460;18.812;2023-06-14T01:11:16;99933.66;;;21.96;57.04
79236;BME280;69062;47.460;18.812;2023-06-14T01:12:31;99931.66;;;21.98;56.95
79236;BME280;69062;47.460;18.812;2023-06-14T01:13:39;99934.16;;;21.99;57.28
79236;BME280;69062;47.460;18.812;2023-06-14T01:14:48;99934.50;;;21.96;57.62
79236;BME280;69062;47.460;18.812;2023-06-14T01:15:51;99935.50;;;21.95;57.26
79236;BME280;69062;47.460;18.812;2023-06-14T01:16:54;99936.47;;;21.94;57.57
79236;BME280;69062;47.460;18.812;2023-06-14T01:17:58;99933.94;;;21.93;57.68
79236;BME280;69062;47.460;18.812;2023-06-14T01:19:10;99926.88;;;21.92;57.76
79236;BME280;69062;47.460;18.812;2023-06-14T01:20:16;99930.41;;;21.92;57.83
79236;BME280;69062;47.460;18.812;2023-06-14T01:21:24;99925.03;;;21.92;57.63
79236;BME280;69062;47.460;18.812;2023-06-14T01:22:27;99923.34;;;21.91;57.24
79236;BME280;69062;47.460;18.812;2023-06-14T01:23:30;99926.03;;;21.91;57.67
79236;BME280;69062;47.460;18.812;2023-06-14T01:24:35;99924.34;;;21.90;57.53
79236;BME280;69062;47.460;18.812;2023-06-14T01:25:38;99918.13;;;21.90;58.00
79236;BME280;69062;47.460;18.812;2023-06-14T01:26:41;99921.66;;;21.90;57.90
79236;BME280;69062;47.460;18.812;2023-06-14T01:27:51;99928.88;;;21.90;57.62
79236;BME280;69062;47.460;18.812;2023-06-14T01:28:56;99922.66;;;21.89;57.43
79236;BME280;69062;47.460;18.812;2023-06-14T01:30:01;99921.81;;;21.89;57.94
79236;BME280;69062;47.460;18.812;2023-06-14T01:31:05;99922.81;;;21.88;57.58
79236;BME280;69062;47.460;18.812;2023-06-14T01:32:08;99918.28;;;21.88;57.49
79236;BME280;69062;47.460;18.812;2023-06-14T01:33:16;99927.34;;;21.87;57.81
79236;BME280;69062;47.460;18.812;2023-06-14T01:34:20;99927.34;;;21.87;58.03
79236;BME280;69062;47.460;18.812;2023-06-14T01:35:26;99919.25;;;21.87;57.69
79236;BME280;69062;47.460;18.812;2023-06-14T01:36:30;99926.34;;;21.88;57.78
79236;BME280;69062;47.460;18.812;2023-06-14T01:37:33;99924.63;;;21.87;58.04
79236;BME280;69062;47.460;18.812;2023-06-14T01:38:37;99924.63;;;21.87;58.14
79236;BME280;69062;47.460;18.812;2023-06-14T01:39:42;99921.28;;;21.85;58.26
79236;BME280;69062;47.460;18.812;2023-06-14T01:40:47;99922.97;;;21.86;58.03
79236;BME280;69062;47.460;18.812;2023-06-14T01:41:51;99923.66;;;21.88;58.33
79236;BME280;69062;47.460;18.812;2023-06-14T01:42:54;99927.19;;;21.89;57.64
79236;BME280;69062;47.460;18.812;2023-06-14T01:43:58;99928.88;;;21.90;58.22
79236;BME280;69062;47.460;18.812;2023-06-14T01:45:04;99928.88;;;21.90;57.71
79236;BME280;69062;47.460;18.812;2023-06-14T01:46:08;99936.13;;;21.89;58.23
79236;BME280;69062;47.460;18.812;2023-06-14T01:47:12;99926.34;;;21.88;57.73
79236;BME280;69062;47.460;18.812;2023-06-14T01:48:16;99925.34;;;21.89;57.79
79236;BME280;69062;47.460;18.812;2023-06-14T01:49:20;99934.25;;;21.90;57.79
79236;BME280;69062;47.460;18.812;2023-06-14T01:50:28;99929.72;;;21.90;57.67
79236;BME280;69062;47.460;18.812;2023-06-14T01:51:32;99928.03;;;21.89;57.93
79236;BME280;69062;47.460;18.812;2023-06-14T01:52:37;99929.03;;;21.88;57.51
79236;BME280;69062;47.460;18.812;2023-06-14T01:53:40;99927.19;;;21.89;58.02
79236;BME280;69062;47.460;18.812;2023-06-14T01:54:45;99926.34;;;21.88;58.26
79236;BME280;69062;47.460;18.812;2023-06-14T01:55:50;99920.97;;;21.88;58.04
79236;BME280;69062;47.460;18.812;2023-06-14T01:56:53;99932.88;;;21.86;57.53
79236;BME280;69062;47.460;18.812;2023-06-14T01:57:55;99928.50;;;21.85;57.86
79236;BME280;69062;47.460;18.812;2023-06-14T01:58:58;99933.88;;;21.85;58.14
79236;BME280;69062;47.460;18.812;2023-06-14T02:00:01;99935.72;;;21.84;58.26
79236;BME280;69062;47.460;18.812;2023-06-14T02:01:14;99934.88;;;21.84;57.73
79236;BME280;69062;47.460;18.812;2023-06-14T02:02:20;99940.25;;;21.84;58.46
79236;BME280;69062;47.460;18.812;2023-06-14T02:03:23;99938.56;;;21.83;57.96
79236;BME280;69062;47.460;18.812;2023-06-14T02:04:27;99942.94;;;21.84;58.14
79236;BME280;69062;47.460;18.812;2023-06-14T02:05:30;99942.25;;;21.82;58.55
79236;BME280;69062;47.460;18.812;2023-06-14T02:06:33;99941.41;;;21.81;58.19
79236;BME280;69062;47.460;18.812;2023-06-14T02:07:36;99945.94;;;21.81;58.38
79236;BME280;69062;47.460;18.812;2023-06-14T02:08:39;99941.41;;;21.81;58.48
79236;BME280;69062;47.460;18.812;2023-06-14T02:09:42;99942.25;;;21.82;58.71
79236;BME280;69062;47.460;18.812;2023-06-14T02:10:45;99940.56;;;21.81;58.20
79236;BME280;69062;47.460;18.812;2023-06-14T02:11:49;99938.84;;;21.80;58.19
79236;BME280;69062;47.460;18.812;2023-06-14T02:12:52;99942.41;;;21.80;58.51
79236;BME280;69062;47.460;18.812;2023-06-14T02:13:56;99938.84;;;21.80;58.65
79236;BME280;69062;47.460;18.812;2023-06-14T02:14:58;99939.72;;;21.80;58.87
79236;BME280;69062;47.460;18.812;2023-06-14T02:16:01;99934.47;;;21.79;58.81
79236;BME280;69062;47.460;18.812;2023-06-14T02:17:04;99936.31;;;21.78;58.72
79236;BME280;69062;47.460;18.812;2023-06-14T02:18:09;99934.66;;;21.77;58.50
79236;BME280;69062;47.460;18.812;2023-06-14T02:19:12;99937.34;;;21.77;58.54
79236;BME280;69062;47.460;18.812;2023-06-14T02:20:15;99934.66;;;21.77;59.04
79236;BME280;69062;47.460;18.812;2023-06-14T02:21:18;99938.19;;;21.78;58.85
79236;BME280;69062;47.460;18.812;2023-06-14T02:22:21;99930.28;;;21.76;59.14
79236;BME280;69062;47.460;18.812;2023-06-14T02:23:24;99932.97;;;21.76;58.50
79236;BME280;69062;47.460;18.812;2023-06-14T02:24:27;99931.94;;;21.77;58.70
79236;BME280;69062;47.460;18.812;2023-06-14T02:25:30;99931.28;;;21.75;59.03
79236;BME280;69062;47.460;18.812;2023-06-14T02:26:32;99938.34;;;21.76;58.63
79236;BME280;69062;47.460;18.812;2023-06-14T02:27:35;99931.13;;;21.77;58.86
79236;BME280;69062;47.460;18.812;2023-06-14T02:28:38;99926.75;;;21.75;58.64
79236;BME280;69062;47.460;18.812;2023-06-14T02:29:44;99936.66;;;21.75;58.58
79236;BME280;69062;47.460;18.812;2023-06-14T02:30:47;99933.13;;;21.74;58.93
79236;BME280;69062;47.460;18.812;2023-06-14T02:31:49;99934.81;;;21.75;59.27
79236;BME280;69062;47.460;18.812;2023-06-14T02:32:55;99928.75;;;21.73;58.77
79236;BME280;69062;47.460;18.812;2023-06-14T02:33:59;99932.28;;;21.74;59.33
79236;BME280;69062;47.460;18.812;2023-06-14T02:35:02;99927.75;;;21.74;58.54
79236;BME280;69062;47.460;18.812;2023-06-14T02:36:06;99931.44;;;21.73;59.34
79236;BME280;69062;47.460;18.812;2023-06-14T02:37:09;99925.06;;;21.74;58.57
79236;BME280;69062;47.460;18.812;2023-06-14T02:38:13;99930.28;;;21.76;58.62
79236;BME280;69062;47.460;18.812;2023-06-14T02:39:16;99928.25;;;21.78;58.79
79236;BME280;69062;47.460;18.812;2023-06-14T02:40:19;99930.09;;;21.78;58.36
79236;BME280;69062;47.460;18.812;2023-06-14T02:41:22;99932.97;;;21.76;58.35
79236;BME280;69062;47.460;18.812;2023-06-14T02:42:25;99927.41;;;21.78;58.46
79236;BME280;69062;47.460;18.812;2023-06-14T02:43:29;99929.25;;;21.77;58.48
79236;BME280;69062;47.460;18.812;2023-06-14T02:44:33;99927.59;;;21.76;58.97
79236;BME280;69062;47.460;18.812;2023-06-14T02:45:36;99928.41;;;21.77;59.09
79236;BME280;69062;47.460;18.812;2023-06-14T02:46:39;99928.41;;;21.77;58.37
79236;BME280;69062;47.460;18.812;2023-06-14T02:47:42;99919.50;;;21.76;58.42
79236;BME280;69062;47.460;18.812;2023-06-14T02:48:47;99922.03;;;21.78;58.50
79236;BME280;69062;47.460;18.812;2023-06-14T02:49:50;99922.03;;;21.78;58.37
79236;BME280;69062;47.460;18.812;2023-06-14T02:50:53;99917.66;;;21.77;58.45
79236;BME280;69062;47.460;18.812;2023-06-14T02:51:56;99926.41;;;21.79;58.25
79236;BME280;69062;47.460;18.812;2023-06-14T02:52:59;99923.03;;;21.77;58.78
79236;BME280;69062;47.460;18.812;2023-06-14T02:54:02;99927.41;;;21.78;58.28
79236;BME280;69062;47.460;18.812;2023-06-14T02:55:06;99925.56;;;21.78;58.91
79236;BME280;69062;47.460;18.812;2023-06-14T02:56:09;99930.09;;;21.78;58.29
79236;BME280;69062;47.460;18.812;2023-06-14T02:57:11;99928.41;;;21.77;58.81
79236;BME280;69062;47.460;18.812;2023-06-14T02:58:16;99925.91;;;21.75;58.46
79236;BME280;69062;47.460;18.812;2023-06-14T02:59:20;99926.06;;;21.73;58.88
79236;BME280;69062;47.460;18.812;2023-06-14T03:00:24;99934.97;;;21.74;58.59
79236;BME280;69062;47.460;18.812;2023-06-14T03:01:27;99933.28;;;21.73;59.11
79236;BME280;69062;47.460;18.812;2023-06-14T03:02:39;99930.72;;;21.71;58.67
79236;BME280;69062;47.460;18.812;2023-06-14T03:03:42;99929.72;;;21.72;58.96
79236;BME280;69062;47.460;18.812;2023-06-14T03:04:45;99922.66;;;21.71;58.40
79236;BME280;69062;47.460;18.812;2023-06-14T03:05:52;99920.13;;;21.70;58.59
79236;BME280;69062;47.460;18.812;2023-06-14T03:06:59;99925.50;;;21.70;58.67
79236;BME280;69062;47.460;18.812;2023-06-14T03:08:05;99918.28;;;21.70;58.95
79236;BME280;69062;47.460;18.812;2023-06-14T03:09:09;99928.19;;;21.70;59.25
79236;BME280;69062;47.460;18.812;2023-06-14T03:10:14;99918.44;;;21.69;59.09
79236;BME280;69062;47.460;18.812;2023-06-14T03:11:19;99926.50;;;21.69;59.27
79236;BME280;69062;47.460;18.812;2023-06-14T03:12:23;99922.97;;;21.68;59.18
79236;BME280;69062;47.460;18.812;2023-06-14T03:13:27;99923.81;;;21.69;58.95
79236;BME280;69062;47.460;18.812;2023-06-14T03:14:35;99924.81;;;21.68;58.85
79236;BME280;69062;47.460;18.812;2023-06-14T03:15:38;99925.81;;;21.67;58.99
79236;BME280;69062;47.460;18.812;2023-06-14T03:16:44;99927.50;;;21.68;59.63
79236;BME280;69062;47.460;18.812;2023-06-14T03:17:48;99930.19;;;21.68;59.28
79236;BME280;69062;47.460;18.812;2023-06-14T03:18:52;99927.50;;;21.68;58.77
79236;BME280;69062;47.460;18.812;2023-06-14T03:19:55;99925.66;;;21.68;59.04
79236;BME280;69062;47.460;18.812;2023-06-14T03:20:58;99935.56;;;21.68;59.02
79236;BME280;69062;47.460;18.812;2023-06-14T03:22:03;99930.19;;;21.68;59.11
79236;BME280;69062;47.460;18.812;2023-06-14T03:23:07;99940.94;;;21.68;59.52
79236;BME280;69062;47.460;18.812;2023-06-14T03:24:10;99935.56;;;21.68;59.75
79236;BME280;69062;47.460;18.812;2023-06-14T03:25:13;99940.09;;;21.67;59.36
79236;BME280;69062;47.460;18.812;2023-06-14T03:26:16;99940.78;;;21.69;59.04
79236;BME280;69062;47.460;18.812;2023-06-14T03:27:25;99938.09;;;21.69;59.67
79236;BME280;69062;47.460;18.812;2023-06-14T03:28:31;99940.63;;;21.71;59.05
79236;BME280;69062;47.460;18.812;2023-06-14T03:29:34;99941.34;;;21.73;58.91
79236;BME280;69062;47.460;18.812;2023-06-14T03:30:37;99942.19;;;21.73;59.23
79236;BME280;69062;47.460;18.812;2023-06-14T03:31:57;99944.88;;;21.73;59.38
79236;BME280;69062;47.460;18.812;2023-06-14T03:33:02;99942.19;;;21.73;58.91
79236;BME280;69062;47.460;18.812;2023-06-14T03:34:05;99941.19;;;21.74;59.08
79236;BME280;69062;47.460;18.812;2023-06-14T03:35:08;99942.88;;;21.75;59.21
79236;BME280;69062;47.460;18.812;2023-06-14T03:36:11;99942.88;;;21.75;58.72
79236;BME280;69062;47.460;18.812;2023-06-14T03:37:15;99950.94;;;21.75;59.12
79236;BME280;69062;47.460;18.812;2023-06-14T03:38:18;99950.94;;;21.75;58.72
79236;BME280;69062;47.460;18.812;2023-06-14T03:39:20;99946.56;;;21.74;58.51
79236;BME280;69062;47.460;18.812;2023-06-14T03:40:23;99945.72;;;21.74;58.99
79236;BME280;69062;47.460;18.812;2023-06-14T03:41:35;99945.72;;;21.74;59.13
79236;BME280;69062;47.460;18.812;2023-06-14T03:42:39;99944.88;;;21.73;59.32
79236;BME280;69062;47.460;18.812;2023-06-14T03:43:42;99940.63;;;21.71;58.97
79236;BME280;69062;47.460;18.812;2023-06-14T03:44:45;99949.53;;;21.71;58.94
79236;BME280;69062;47.460;18.812;2023-06-14T03:45:48;99946.84;;;21.71;58.94
79236;BME280;69062;47.460;18.812;2023-06-14T03:46:52;99952.22;;;21.71;58.98
79236;BME280;69062;47.460;18.812;2023-06-14T03:47:54;99951.38;;;21.71;58.80
79236;BME280;69062;47.460;18.812;2023-06-14T03:48:58;99949.69;;;21.70;58.93
79236;BME280;69062;47.460;18.812;2023-06-14T03:50:02;99950.69;;;21.69;59.09
79236;BME280;69062;47.460;18.812;2023-06-14T03:51:05;99953.38;;;21.69;59.20
79236;BME280;69062;47.460;18.812;2023-06-14T03:52:08;99947.16;;;21.68;59.42
79236;BME280;69062;47.460;18.812;2023-06-14T03:53:13;99957.06;;;21.68;58.95
79236;BME280;69062;47.460;18.812;2023-06-14T03:54:20;99953.38;;;21.69;59.20
79236;BME280;69062;47.460;18.812;2023-06-14T03:55:28;99957.06;;;21.68;59.42
79236;BME280;69062;47.460;18.812;2023-06-14T03:56:37;99958.75;;;21.69;59.11
79236;BME280;69062;47.460;18.812;2023-06-14T03:57:43;99965.81;;;21.70;59.18
79236;BME280;69062;47.460;18.812;2023-06-14T03:58:49;99958.75;;;21.69;59.62
79236;BME280;69062;47.460;18.812;2023-06-14T03:59:54;99962.28;;;21.69;59.49
79236;BME280;69062;47.460;18.812;2023-06-14T04:00:57;99960.44;;;21.70;59.68
79236;BME280;69062;47.460;18.812;2023-06-14T04:02:01;99955.06;;;21.70;59.75
79236;BME280;69062;47.460;18.812;2023-06-14T04:03:04;99956.75;;;21.71;59.45
79236;BME280;69062;47.460;18.812;2023-06-14T04:04:08;99958.75;;;21.69;59.52
79236;BME280;69062;47.460;18.812;2023-06-14T04:05:11;99952.38;;;21.70;59.57
79236;BME280;69062;47.460;18.812;2023-06-14T04:06:19;99957.91;;;21.68;59.62
79236;BME280;69062;47.460;18.812;2023-06-14T04:07:23;99961.44;;;21.69;59.54
79236;BME280;69062;47.460;18.812;2023-06-14T04:08:27;99964.13;;;21.69;59.73
79236;BME280;69062;47.460;18.812;2023-06-14T04:09:31;99965.97;;;21.68;59.72
79236;BME280;69062;47.460;18.812;2023-06-14T04:10:35;99965.81;;;21.70;59.91
79236;BME280;69062;47.460;18.812;2023-06-14T04:11:37;99960.28;;;21.71;59.87
79236;BME280;69062;47.460;18.812;2023-06-14T04:12:40;99967.34;;;21.72;59.58
79236;BME280;69062;47.460;18.812;2023-06-14T04:13:45;99966.38;;;21.73;59.43
79236;BME280;69062;47.460;18.812;2023-06-14T04:14:49;99972.44;;;21.75;59.03
79236;BME280;69062;47.460;18.812;2023-06-14T04:15:52;99971.59;;;21.75;59.12
79236;BME280;69062;47.460;18.812;2023-06-14T04:17:00;99972.44;;;21.75;59.34
79236;BME280;69062;47.460;18.812;2023-06-14T04:18:03;99979.50;;;21.77;59.02
79236;BME280;69062;47.460;18.812;2023-06-14T04:19:07;99973.28;;;21.76;59.23
79236;BME280;69062;47.460;18.812;2023-06-14T04:20:09;99973.13;;;21.78;59.29
79236;BME280;69062;47.460;18.812;2023-06-14T04:21:13;99966.75;;;21.79;59.45
79236;BME280;69062;47.460;18.812;2023-06-14T04:22:16;99976.66;;;21.78;59.48
79236;BME280;69062;47.460;18.812;2023-06-14T04:23:19;99965.22;;;21.76;59.21
79236;BME280;69062;47.460;18.812;2023-06-14T04:24:23;99968.22;;;21.73;59.16
79236;BME280;69062;47.460;18.812;2023-06-14T04:25:31;99975.97;;;21.76;59.05
79236;BME280;69062;47.460;18.812;2023-06-14T04:26:35;99972.59;;;21.74;59.07
79236;BME280;69062;47.460;18.812;2023-06-14T04:27:37;99972.59;;;21.74;59.10
79236;BME280;69062;47.460;18.812;2023-06-14T04:28:40;99977.13;;;21.73;59.47
79236;BME280;69062;47.460;18.812;2023-06-14T04:29:45;99975.41;;;21.72;59.25
79236;BME280;69062;47.460;18.812;2023-06-14T04:30:52;99975.28;;;21.74;59.14
79236;BME280;69062;47.460;18.812;2023-06-14T04:31:56;99977.97;;;21.74;59.12
79236;BME280;69062;47.460;18.812;2023-06-14T04:33:01;99977.13;;;21.73;59.04
79236;BME280;69062;47.460;18.812;2023-06-14T04:34:08;99975.28;;;21.74;59.75
79236;BME280;69062;47.460;18.812;2023-06-14T04:35:11;99985.19;;;21.73;59.19
79236;BME280;69062;47.460;18.812;2023-06-14T04:36:18;99985.19;;;21.73;59.21
79236;BME280;69062;47.460;18.812;2023-06-14T04:37:23;99983.47;;;21.72;59.69
79236;BME280;69062;47.460;18.812;2023-06-14T04:38:25;99987.88;;;21.73;59.18
79236;BME280;69062;47.460;18.812;2023-06-14T04:39:30;99986.88;;;21.74;59.38
79236;BME280;69062;47.460;18.812;2023-06-14T04:40:36;99989.41;;;21.76;59.34
79236;BME280;69062;47.460;18.812;2023-06-14T04:41:48;99987.72;;;21.75;59.15
79236;BME280;69062;47.460;18.812;2023-06-14T04:42:55;99986.88;;;21.74;59.43
79236;BME280;69062;47.460;18.812;2023-06-14T04:44:00;99987.56;;;21.77;59.59
79236;BME280;69062;47.460;18.812;2023-06-14T04:45:07;99989.41;;;21.76;59.20
79236;BME280;69062;47.460;18.812;2023-06-14T04:46:12;99988.41;;;21.77;59.21
79236;BME280;69062;47.460;18.812;2023-06-14T04:47:17;99990.09;;;21.78;59.26
79236;BME280;69062;47.460;18.812;2023-06-14T04:48:21;99985.56;;;21.79;59.33
79236;BME280;69062;47.460;18.812;2023-06-14T04:49:25;99980.19;;;21.79;59.12
79236;BME280;69062;47.460;18.812;2023-06-14T04:50:29;99982.88;;;21.79;59.22
79236;BME280;69062;47.460;18.812;2023-06-14T04:51:32;99988.13;;;21.80;59.19
79236;BME280;69062;47.460;18.812;2023-06-14T04:52:36;99984.28;;;21.83;59.51
79236;BME280;69062;47.460;18.812;2023-06-14T04:53:40;99985.28;;;21.82;59.02
79236;BME280;69062;47.460;18.812;2023-06-14T04:54:43;99990.66;;;21.82;59.29
79236;BME280;69062;47.460;18.812;2023-06-14T04:55:51;99986.81;;;21.84;58.82
79236;BME280;69062;47.460;18.812;2023-06-14T04:56:56;99983.13;;;21.85;59.09
79236;BME280;69062;47.460;18.812;2023-06-14T04:58:01;99986.81;;;21.84;59.20
79236;BME280;69062;47.460;18.812;2023-06-14T04:59:04;99989.19;;;21.87;58.95
79236;BME280;69062;47.460;18.812;2023-06-14T05:00:07;99988.22;;;21.88;58.54
79236;BME280;69062;47.460;18.812;2023-06-14T05:01:12;99986.38;;;21.89;59.26
79236;BME280;69062;47.460;18.812;2023-06-14T05:02:15;99982.66;;;21.90;58.94
79236;BME280;69062;47.460;18.812;2023-06-14T05:03:18;99986.19;;;21.90;58.49
79236;BME280;69062;47.460;18.812;2023-06-14T05:04:23;99985.19;;;21.91;58.68
79236;BME280;69062;47.460;18.812;2023-06-14T05:05:28;99987.03;;;21.91;58.41
79236;BME280;69062;47.460;18.812;2023-06-14T05:06:31;99987.03;;;21.91;58.49
79236;BME280;69062;47.460;18.812;2023-06-14T05:07:33;99995.13;;;21.91;59.07
79236;BME280;69062;47.460;18.812;2023-06-14T05:08:37;99990.59;;;21.91;58.50
79236;BME280;69062;47.460;18.812;2023-06-14T05:09:39;99986.88;;;21.92;58.83
79236;BME280;69062;47.460;18.812;2023-06-14T05:10:42;99992.25;;;21.92;58.47
79236;BME280;69062;47.460;18.812;2023-06-14T05:11:45;99993.09;;;21.93;58.95
79236;BME280;69062;47.460;18.812;2023-06-14T05:12:50;99992.94;;;21.94;58.59
79236;BME280;69062;47.460;18.812;2023-06-14T05:13:53;99997.50;;;21.94;58.72
79236;BME280;69062;47.460;18.812;2023-06-14T05:14:57;99995.63;;;21.94;58.58
79236;BME280;69062;47.460;18.812;2023-06-14T05:16:01;99995.50;;;21.96;58.47
79236;BME280;69062;47.460;18.812;2023-06-14T05:17:05;99996.19;;;21.98;58.25
79236;BME280;69062;47.460;18.812;2023-06-14T05:18:08;99992.66;;;21.97;58.33
79236;BME280;69062;47.460;18.812;2023-06-14T05:19:12;99994.34;;;21.98;58.27
79236;BME280;69062;47.460;18.812;2023-06-14T05:20:15;99997.03;;;21.98;58.48
79236;BME280;69062;47.460;18.812;2023-06-14T05:21:18;99999.56;;;22.00;58.89
79236;BME280;69062;47.460;18.812;2023-06-14T05:22:21;99994.19;;;22.00;58.23
79236;BME280;69062;47.460;18.812;2023-06-14T05:23:23;99998.72;;;21.99;58.28
79236;BME280;69062;47.460;18.812;2023-06-14T05:24:26;99996.03;;;21.99;58.73
79236;BME280;69062;47.460;18.812;2023-06-14T05:25:29;99996.88;;;22.00;58.72
79236;BME280;69062;47.460;18.812;2023-06-14T05:26:32;100001.25;;;22.01;58.22
79236;BME280;69062;47.460;18.812;2023-06-14T05:27:36;100000.41;;;22.00;58.89
79236;BME280;69062;47.460;18.812;2023-06-14T05:28:39;100002.09;;;22.01;58.75
79236;BME280;69062;47.460;18.812;2023-06-14T05:29:42;100004.78;;;22.01;58.57
79236;BME280;69062;47.460;18.812;2023-06-14T05:30:45;100005.78;;;22.00;58.57
79236;BME280;69062;47.460;18.812;2023-06-14T05:31:48;100004.78;;;22.01;58.30
79236;BME280;69062;47.460;18.812;2023-06-14T05:32:51;99998.56;;;22.01;58.60
79236;BME280;69062;47.460;18.812;2023-06-14T05:33:55;100007.47;;;22.01;58.13
79236;BME280;69062;47.460;18.812;2023-06-14T05:34:58;100009.19;;;22.02;58.05
79236;BME280;69062;47.460;18.812;2023-06-14T05:36:01;100007.03;;;22.06;58.54
79236;BME280;69062;47.460;18.812;2023-06-14T05:37:03;100007.88;;;22.07;58.13
79236;BME280;69062;47.460;18.812;2023-06-14T05:38:06;100005.19;;;22.07;58.21